Time;durP1;ratioP1;P1;durP2;ratioP2;P2;SDS_P1;SDS_P2;PMS_P1;PMS_P2;Temp;Humidity;BMP_temperature;BMP_pressure;BME280_temperature;BME280_humidity;BME280_pressure;Samples;Min_cycle;Max_cycle;Signal;HPM_P1;HPM_P2
2021/12/06 00:00:24;;;;;;;68.50;21.33;;;;;;;;;;5097373;28;20028;-77
2021/12/06 00:02:50;;;;;;;77.63;22.95;;;;;;;;;;5097248;28;20498;-77
2021/12/06 00:05:15;;;;;;;64.80;20.92;;;;;;;;;;5079372;28;20024;-77
2021/12/06 00:07:41;;;;;;;58.95;20.92;;;;;;;;;;5079283;28;20020;-77
2021/12/06 00:10:07;;;;;;;70.75;23.25;;;;;;;;;;5097291;28;20039;-77
2021/12/06 00:12:33;;;;;;;64.18;20.25;;;;;;;;;;5097201;28;20384;-78
2021/12/06 00:14:58;;;;;;;76.72;21.70;;;;;;;;;;5097408;28;20020;-78
2021/12/06 00:17:24;;;;;;;70.22;21.33;;;;;;;;;;5097000;28;20024;-78
2021/12/06 00:19:50;;;;;;;66.28;18.75;;;;;;;;;;5097350;28;20058;-77
2021/12/06 00:22:22;;;;;;;68.93;19.90;;;;;;;;;;5096992;28;20028;-77
2021/12/06 00:24:48;;;;;;;58.33;18.92;;;;;;;;;;5097256;28;20032;-77
2021/12/06 00:27:14;;;;;;;59.85;18.63;;;;;;;;;;5097001;28;20476;-77
2021/12/06 00:29:39;;;;;;;63.47;18.58;;;;;;;;;;5096895;28;20020;-78
2021/12/06 00:32:05;;;;;;;62.53;19.30;;;;;;;;;;5096664;28;20388;-77
2021/12/06 00:34:34;;;;;;;61.03;17.13;;;;;;;;;;5097074;28;20036;-78
2021/12/06 00:39:45;;;;;;;56.33;18.85;;;;;;;;;;5096633;28;20059;-77
2021/12/06 00:42:11;;;;;;;47.25;16.42;;;;;;;;;;5095650;28;20032;-78
2021/12/06 00:44:37;;;;;;;46.28;15.60;;;;;;;;;;5078631;28;20035;-77
2021/12/06 00:47:02;;;;;;;50.00;16.73;;;;;;;;;;5096407;28;20063;-78
2021/12/06 00:49:28;;;;;;;51.00;17.20;;;;;;;;;;5096541;28;20078;-78
2021/12/06 00:51:53;;;;;;;53.50;17.20;;;;;;;;;;5096548;28;20128;-78
2021/12/06 00:54:19;;;;;;;52.80;17.35;;;;;;;;;;5096750;28;20024;-78
2021/12/06 00:56:44;;;;;;;40.70;15.80;;;;;;;;;;5096392;28;20065;-78
2021/12/06 00:59:10;;;;;;;48.50;16.95;;;;;;;;;;5096161;28;20039;-79
2021/12/06 01:01:35;;;;;;;54.97;17.48;;;;;;;;;;5096478;28;20123;-78
2021/12/06 01:04:01;;;;;;;48.13;16.70;;;;;;;;;;5096226;28;20081;-78
2021/12/06 01:06:27;;;;;;;56.33;17.25;;;;;;;;;;5096250;28;20062;-78
2021/12/06 01:08:52;;;;;;;50.60;17.70;;;;;;;;;;5096136;28;20426;-79
2021/12/06 01:11:18;;;;;;;53.30;16.73;;;;;;;;;;5096154;28;20097;-79
2021/12/06 01:13:43;;;;;;;51.80;17.45;;;;;;;;;;5096115;28;20031;-78
2021/12/06 01:16:09;;;;;;;49.72;15.55;;;;;;;;;;5096171;28;20359;-78
2021/12/06 01:18:35;;;;;;;52.13;16.98;;;;;;;;;;5095968;28;20035;-78
2021/12/06 01:21:11;;;;;;;51.40;18.13;;;;;;;;;;5095889;28;20036;-78
2021/12/06 01:23:51;;;;;;;41.50;15.23;;;;;;;;;;5079309;28;20085;-79
2021/12/06 01:39:17;;;;;;;45.72;15.98;;;;;;;;;;5095454;28;20059;-78
2021/12/06 01:42:01;;;;;;;43.53;14.60;;;;;;;;;;5095354;28;20032;-78
2021/12/06 01:44:30;;;;;;;39.55;14.80;;;;;;;;;;5078714;28;20020;-78
2021/12/06 01:46:59;;;;;;;48.83;16.90;;;;;;;;;;5095451;28;20216;-79
2021/12/06 01:49:26;;;;;;;42.78;15.65;;;;;;;;;;5077649;28;20157;-78
2021/12/06 01:51:52;;;;;;;41.53;15.15;;;;;;;;;;5095263;28;20012;-78
2021/12/06 01:54:18;;;;;;;46.20;15.10;;;;;;;;;;5060379;28;20024;-79
2021/12/06 01:56:44;;;;;;;45.70;15.43;;;;;;;;;;5044936;28;20050;-78
2021/12/06 01:59:10;;;;;;;50.28;16.83;;;;;;;;;;5076934;28;20035;-79
2021/12/06 02:01:36;;;;;;;47.05;15.57;;;;;;;;;;5077236;28;20024;-78
2021/12/06 02:04:01;;;;;;;49.65;15.95;;;;;;;;;;5095165;28;20031;-79
2021/12/06 02:06:27;;;;;;;40.78;14.98;;;;;;;;;;5095370;28;20110;-79
2021/12/06 02:08:52;;;;;;;41.85;15.20;;;;;;;;;;5095146;28;20020;-78
2021/12/06 02:11:18;;;;;;;50.33;16.52;;;;;;;;;;5095227;28;20032;-79
2021/12/06 02:13:53;;;;;;;58.70;16.23;;;;;;;;;;5076696;28;20024;-78
2021/12/06 02:16:25;;;;;;;46.30;14.52;;;;;;;;;;5094925;28;20034;-78
2021/12/06 02:19:00;;;;;;;47.10;15.15;;;;;;;;;;5095221;28;20368;-79
2021/12/06 02:21:32;;;;;;;47.08;15.82;;;;;;;;;;5063069;28;20165;-76
2021/12/06 02:23:59;;;;;;;46.10;15.10;;;;;;;;;;5094848;28;20019;-77
2021/12/06 02:26:24;;;;;;;42.70;14.82;;;;;;;;;;5076547;28;20027;-77
2021/12/06 02:28:50;;;;;;;39.45;13.27;;;;;;;;;;5094728;28;20028;-77
2021/12/06 02:31:17;;;;;;;47.47;14.73;;;;;;;;;;5094770;28;20024;-77
2021/12/06 02:33:45;;;;;;;41.40;14.20;;;;;;;;;;5094599;28;20384;-77
2021/12/06 02:36:10;;;;;;;41.75;14.57;;;;;;;;;;5094831;28;20050;-77
2021/12/06 02:38:36;;;;;;;43.45;13.57;;;;;;;;;;5094467;28;20436;-77
2021/12/06 02:41:01;;;;;;;42.17;15.38;;;;;;;;;;5094257;28;20220;-76
2021/12/06 02:43:27;;;;;;;55.03;14.93;;;;;;;;;;5094568;28;20020;-77
2021/12/06 02:45:52;;;;;;;41.05;13.93;;;;;;;;;;5094462;28;20012;-76
2021/12/06 02:48:18;;;;;;;34.78;12.90;;;;;;;;;;5094400;28;20020;-78
2021/12/06 02:50:45;;;;;;;40.13;12.85;;;;;;;;;;5094433;28;20099;-76
2021/12/06 02:53:11;;;;;;;39.60;13.95;;;;;;;;;;5076432;28;20459;-77
2021/12/06 02:55:37;;;;;;;40.13;13.63;;;;;;;;;;5094089;28;20020;-77
2021/12/06 02:58:13;;;;;;;41.05;13.90;;;;;;;;;;5094315;28;20020;-77
2021/12/06 03:00:41;;;;;;;35.13;13.13;;;;;;;;;;5094127;28;20032;-79
2021/12/06 03:03:06;;;;;;;38.70;13.38;;;;;;;;;;5094267;28;20024;-77
2021/12/06 03:05:32;;;;;;;37.58;13.07;;;;;;;;;;5093738;28;20024;-77
2021/12/06 03:08:00;;;;;;;37.65;12.93;;;;;;;;;;5094177;28;20028;-77
2021/12/06 03:10:26;;;;;;;36.90;11.63;;;;;;;;;;5093979;28;20028;-77
2021/12/06 03:12:51;;;;;;;38.05;12.07;;;;;;;;;;5094205;28;20051;-77
2021/12/06 03:15:17;;;;;;;36.55;12.63;;;;;;;;;;5094151;28;20508;-77
2021/12/06 03:17:42;;;;;;;37.28;12.63;;;;;;;;;;5094170;28;20062;-77
2021/12/06 03:20:13;;;;;;;39.63;11.88;;;;;;;;;;5094192;28;20036;-77
2021/12/06 03:22:39;;;;;;;;;;;;;;;;;;5094499;28;20036;-77
2021/12/06 03:25:11;;;;;;;30.95;11.73;;;;;;;;;;5093768;28;19918;-77
2021/12/06 03:27:36;;;;;;;35.80;11.38;;;;;;;;;;5093966;28;20031;-77
2021/12/06 03:30:03;;;;;;;35.95;11.82;;;;;;;;;;5094534;28;20028;-76
2021/12/06 03:32:29;;;;;;;35.45;10.70;;;;;;;;;;5059333;28;20038;-76
2021/12/06 03:34:54;;;;;;;33.42;10.15;;;;;;;;;;5093969;28;20423;-76
2021/12/06 03:37:20;;;;;;;38.13;12.13;;;;;;;;;;5093964;28;20090;-76
2021/12/06 03:39:47;;;;;;;32.70;11.05;;;;;;;;;;5093530;28;20044;-77
2021/12/06 03:42:13;;;;;;;35.88;12.20;;;;;;;;;;5093846;28;20039;-77
2021/12/06 03:44:38;;;;;;;33.70;11.13;;;;;;;;;;5075960;28;20483;-77
2021/12/06 03:47:12;;;;;;;36.63;11.70;;;;;;;;;;5093892;28;20024;-77
2021/12/06 03:49:38;;;;;;;34.78;11.10;;;;;;;;;;5093851;28;20035;-78
2021/12/06 03:52:04;;;;;;;31.48;11.30;;;;;;;;;;5075918;28;20024;-77
2021/12/06 03:54:30;;;;;;;35.15;11.68;;;;;;;;;;5093447;28;20063;-77
2021/12/06 03:56:56;;;;;;;28.55;11.07;;;;;;;;;;5093754;28;20480;-77
2021/12/06 03:59:22;;;;;;;35.42;11.20;;;;;;;;;;5094252;28;20336;-77
2021/12/06 04:01:48;;;;;;;27.52;10.85;;;;;;;;;;5059389;28;20028;-79
2021/12/06 04:04:14;;;;;;;28.92;9.95;;;;;;;;;;5075949;28;20410;-77
2021/12/06 04:06:40;;;;;;;33.72;11.82;;;;;;;;;;5093640;28;20024;-77
2021/12/06 04:09:06;;;;;;;34.38;11.60;;;;;;;;;;5075472;28;20027;-76
2021/12/06 04:11:32;;;;;;;35.47;12.07;;;;;;;;;;5093633;28;20119;-77
2021/12/06 04:13:58;;;;;;;39.17;12.15;;;;;;;;;;5093833;28;20016;-77
2021/12/06 04:16:23;;;;;;;37.17;13.07;;;;;;;;;;5094746;28;20031;-78
2021/12/06 04:18:49;;;;;;;37.25;13.18;;;;;;;;;;5097177;28;20517;-78
2021/12/06 04:21:15;;;;;;;34.28;12.68;;;;;;;;;;5097510;28;20058;-77
2021/12/06 04:23:41;;;;;;;37.63;13.45;;;;;;;;;;5096812;28;20423;-77
2021/12/06 04:26:06;;;;;;;37.15;13.55;;;;;;;;;;5097013;28;20028;-78
2021/12/06 04:28:34;;;;;;;40.58;16.35;;;;;;;;;;5096965;28;20056;-77
2021/12/06 04:31:00;;;;;;;41.15;15.50;;;;;;;;;;5096911;28;20028;-77
2021/12/06 04:33:25;;;;;;;46.80;15.60;;;;;;;;;;5096941;28;20461;-78
2021/12/06 04:35:51;;;;;;;39.28;14.65;;;;;;;;;;5096886;28;20047;-78
2021/12/06 04:38:16;;;;;;;43.35;14.98;;;;;;;;;;5096839;28;20387;-78
2021/12/06 04:40:42;;;;;;;41.03;13.85;;;;;;;;;;5096588;28;20533;-78
2021/12/06 04:43:07;;;;;;;43.50;13.35;;;;;;;;;;5096719;28;20024;-77
2021/12/06 04:45:33;;;;;;;45.08;14.60;;;;;;;;;;5078693;28;20024;-78
2021/12/06 04:47:58;;;;;;;35.25;13.07;;;;;;;;;;5062057;28;20059;-77
2021/12/06 04:50:25;;;;;;;34.85;12.23;;;;;;;;;;5096619;28;20346;-78
2021/12/06 04:52:53;;;;;;;34.17;11.93;;;;;;;;;;5078221;28;20538;-76
2021/12/06 04:55:30;;;;;;;35.22;12.73;;;;;;;;;;5061897;28;20085;-77
2021/12/06 04:57:56;;;;;;;38.42;12.48;;;;;;;;;;5096380;28;20093;-77
2021/12/06 05:00:39;;;;;;;32.83;12.43;;;;;;;;;;5096383;28;20032;-78
2021/12/06 05:03:05;;;;;;;32.47;11.68;;;;;;;;;;5096177;28;20032;-77
2021/12/06 05:05:40;;;;;;;37.10;12.75;;;;;;;;;;5078289;28;20028;-77
2021/12/06 05:08:21;;;;;;;38.13;13.05;;;;;;;;;;5096252;28;20059;-76
2021/12/06 05:10:46;;;;;;;42.72;13.70;;;;;;;;;;5096127;28;20120;-77
2021/12/06 05:13:12;;;;;;;40.78;13.13;;;;;;;;;;5096130;28;20125;-77
2021/12/06 05:15:37;;;;;;;40.20;13.18;;;;;;;;;;5096050;28;20114;-77
2021/12/06 05:18:03;;;;;;;41.22;12.43;;;;;;;;;;5095969;28;20024;-78
2021/12/06 05:20:29;;;;;;;35.60;12.88;;;;;;;;;;5095662;28;20047;-76
2021/12/06 05:22:54;;;;;;;37.80;13.60;;;;;;;;;;5095874;28;20345;-76
2021/12/06 05:25:23;;;;;;;40.42;13.15;;;;;;;;;;5095828;28;20028;-76
2021/12/06 05:27:49;;;;;;;56.38;17.13;;;;;;;;;;5095564;28;20032;-78
2021/12/06 05:30:15;;;;;;;46.58;15.45;;;;;;;;;;5095768;28;20453;-79
2021/12/06 05:32:42;;;;;;;50.15;17.67;;;;;;;;;;5095975;28;20032;-77
2021/12/06 05:35:10;;;;;;;41.72;14.40;;;;;;;;;;5097392;28;20028;-77
2021/12/06 05:37:40;;;;;;;46.03;14.20;;;;;;;;;;5095718;28;20028;-77
2021/12/06 05:40:08;;;;;;;63.85;19.63;;;;;;;;;;5077645;28;20043;-78
2021/12/06 05:42:33;;;;;;;47.45;15.05;;;;;;;;;;5095100;28;20043;-76
2021/12/06 05:44:59;;;;;;;42.55;12.60;;;;;;;;;;5094884;28;20028;-76
2021/12/06 05:47:24;;;;;;;53.80;15.15;;;;;;;;;;5095180;27;20372;-78
2021/12/06 05:49:50;;;;;;;55.00;16.88;;;;;;;;;;5091984;28;20024;-77
2021/12/06 05:52:15;;;;;;;49.25;14.35;;;;;;;;;;5094030;28;20388;-77
2021/12/06 05:54:41;;;;;;;40.78;12.85;;;;;;;;;;5098185;28;20032;-77
2021/12/06 05:57:09;;;;;;;37.45;12.68;;;;;;;;;;5077324;28;20034;-78
2021/12/06 05:59:35;;;;;;;30.73;11.18;;;;;;;;;;5093396;28;20059;-78
2021/12/06 06:02:01;;;;;;;38.33;11.48;;;;;;;;;;5098616;28;20036;-78
2021/12/06 06:04:27;;;;;;;42.65;13.90;;;;;;;;;;5096741;28;20030;-77
2021/12/06 06:06:52;;;;;;;49.47;15.32;;;;;;;;;;5116028;28;20043;-77
2021/12/06 06:09:18;;;;;;;41.90;14.23;;;;;;;;;;5114535;28;20023;-79
2021/12/06 06:11:44;;;;;;;41.22;13.60;;;;;;;;;;5091838;28;20073;-77
2021/12/06 06:14:09;;;;;;;47.30;14.32;;;;;;;;;;5102067;28;20091;-77
2021/12/06 06:16:47;;;;;;;42.17;12.02;;;;;;;;;;5113765;28;20024;-78
2021/12/06 06:19:14;;;;;;;37.88;12.50;;;;;;;;;;5113593;28;20024;-79
2021/12/06 06:21:40;;;;;;;38.85;12.43;;;;;;;;;;5086442;28;20039;-81
2021/12/06 06:24:05;;;;;;;38.88;12.38;;;;;;;;;;5090989;28;20105;-80
2021/12/06 06:26:31;;;;;;;44.00;13.80;;;;;;;;;;5102341;28;20375;-75
2021/12/06 06:28:57;;;;;;;48.63;13.52;;;;;;;;;;5097390;28;20095;-78
2021/12/06 06:31:22;;;;;;;44.92;13.23;;;;;;;;;;5085797;28;20032;-77
2021/12/06 06:33:47;;;;;;;40.15;13.18;;;;;;;;;;5109473;28;20031;-78
2021/12/06 06:36:13;;;;;;;41.13;12.90;;;;;;;;;;5097167;28;20050;-77
2021/12/06 06:38:39;;;;;;;41.20;13.07;;;;;;;;;;5103212;28;20093;-78
2021/12/06 06:41:04;;;;;;;42.00;13.07;;;;;;;;;;5101613;28;20418;-79
2021/12/06 06:43:30;;;;;;;43.63;12.95;;;;;;;;;;5057982;28;20032;-77
2021/12/06 06:45:56;;;;;;;62.63;22.60;;;;;;;;;;5073944;28;20043;-79
2021/12/06 06:48:21;;;;;;;59.13;18.60;;;;;;;;;;5098571;28;20036;-77
2021/12/06 06:50:47;;;;;;;81.53;33.85;;;;;;;;;;5101526;28;20038;-78
2021/12/06 06:53:15;;;;;;;43.80;16.40;;;;;;;;;;5070467;28;20028;-76
2021/12/06 06:55:40;;;;;;;43.35;15.73;;;;;;;;;;5090027;28;20127;-76
2021/12/06 06:58:06;;;;;;;50.10;14.88;;;;;;;;;;5080350;28;20126;-77
2021/12/06 07:00:34;;;;;;;48.50;15.07;;;;;;;;;;5088192;28;20108;-77
2021/12/06 07:03:00;;;;;;;41.33;13.98;;;;;;;;;;5081064;28;20024;-77
2021/12/06 07:05:27;;;;;;;40.30;14.95;;;;;;;;;;5095265;28;20566;-77
2021/12/06 07:07:53;;;;;;;50.92;18.35;;;;;;;;;;5079968;28;20150;-77
2021/12/06 07:10:20;;;;;;;52.60;19.58;;;;;;;;;;5085400;28;20032;-77
2021/12/06 07:12:48;;;;;;;46.67;19.75;;;;;;;;;;5086754;28;20047;-77
2021/12/06 07:15:19;;;;;;;41.80;16.00;;;;;;;;;;5101957;28;20028;-76
2021/12/06 07:17:45;;;;;;;45.28;18.63;;;;;;;;;;5104107;28;20040;-77
2021/12/06 07:20:12;;;;;;;54.33;21.73;;;;;;;;;;5072709;28;20036;-76
2021/12/06 07:22:38;;;;;;;63.72;25.13;;;;;;;;;;5073214;28;20221;-76
2021/12/06 07:25:04;;;;;;;62.67;25.35;;;;;;;;;;5109139;28;20043;-75
2021/12/06 07:27:30;;;;;;;54.08;20.83;;;;;;;;;;5104624;28;20032;-75
2021/12/06 07:29:58;;;;;;;55.17;19.95;;;;;;;;;;5074887;28;20035;-76
2021/12/06 07:32:23;;;;;;;53.78;22.88;;;;;;;;;;5109165;28;20443;-77
2021/12/06 07:34:51;;;;;;;46.50;19.17;;;;;;;;;;5108135;28;20038;-76
2021/12/06 07:37:19;;;;;;;40.88;17.27;;;;;;;;;;5083399;28;20143;-76
2021/12/06 07:39:45;;;;;;;40.03;17.17;;;;;;;;;;5106727;28;20187;-78
2021/12/06 07:42:12;;;;;;;47.08;19.90;;;;;;;;;;5104371;28;20452;-75
2021/12/06 07:44:41;;;;;;;49.83;21.95;;;;;;;;;;5112185;28;20058;-75
2021/12/06 07:47:07;;;;;;;60.08;23.58;;;;;;;;;;5113818;28;20432;-75
2021/12/06 07:49:39;;;;;;;48.50;19.73;;;;;;;;;;5111634;28;20032;-76
2021/12/06 07:52:05;;;;;;;35.17;13.50;;;;;;;;;;5119484;27;20030;-77
2021/12/06 07:54:31;;;;;;;34.40;13.50;;;;;;;;;;5108674;28;20031;-79
2021/12/06 07:56:57;;;;;;;34.22;13.80;;;;;;;;;;5098384;28;20035;-76
2021/12/06 07:59:23;;;;;;;42.20;14.07;;;;;;;;;;5098904;28;20027;-78
2021/12/06 08:01:48;;;;;;;33.72;12.15;;;;;;;;;;5090019;28;20123;-75
2021/12/06 08:04:14;;;;;;;55.70;17.73;;;;;;;;;;5078120;28;20130;-77
2021/12/06 08:06:40;;;;;;;36.88;13.82;;;;;;;;;;5118200;28;20471;-77
2021/12/06 08:09:06;;;;;;;28.73;11.98;;;;;;;;;;5119185;28;20209;-76
2021/12/06 08:11:32;;;;;;;35.72;13.13;;;;;;;;;;5117781;28;20104;-76
2021/12/06 08:13:58;;;;;;;31.05;12.02;;;;;;;;;;5102774;28;20440;-77
2021/12/06 08:16:29;;;;;;;41.97;13.48;;;;;;;;;;5095845;28;20024;-77
2021/12/06 08:18:54;;;;;;;40.97;14.25;;;;;;;;;;5059757;28;20069;-78
2021/12/06 08:21:21;;;;;;;37.63;13.13;;;;;;;;;;5096887;28;20108;-76
2021/12/06 08:23:49;;;;;;;37.03;13.68;;;;;;;;;;5097085;28;20518;-77
2021/12/06 08:26:14;;;;;;;35.10;14.18;;;;;;;;;;5079897;28;20465;-77
2021/12/06 08:28:40;;;;;;;36.40;13.23;;;;;;;;;;5097873;28;20028;-77
2021/12/06 08:31:06;;;;;;;36.80;13.73;;;;;;;;;;5082450;28;20039;-75
2021/12/06 08:33:33;;;;;;;40.38;14.95;;;;;;;;;;5080549;28;20028;-76
2021/12/06 08:35:58;;;;;;;39.38;15.63;;;;;;;;;;5099197;28;20035;-78
2021/12/06 08:38:26;;;;;;;44.67;17.17;;;;;;;;;;5101020;28;20020;-79
2021/12/06 08:40:52;;;;;;;48.40;17.73;;;;;;;;;;5077275;28;20354;-80
2021/12/06 08:43:39;;;;;;;41.65;17.08;;;;;;;;;;5057924;28;20060;-81
2021/12/06 08:46:07;;;;;;;33.60;13.10;;;;;;;;;;5046636;28;20113;-82
2021/12/06 08:48:34;;;;;;;40.10;14.40;;;;;;;;;;5060527;28;20050;-80
2021/12/06 08:51:06;;;;;;;33.22;12.40;;;;;;;;;;5093917;28;20442;-81
2021/12/06 09:04:01;;;;;;;52.67;23.80;;;;;;;;;;3392723;26;20642;-79
2021/12/06 09:09:56;;;;;;;28.08;10.63;;;;;;;;;;5102502;22;20075;-81
2021/12/06 09:12:24;;;;;;;22.40;10.02;;;;;;;;;;5079588;28;20039;-79
2021/12/06 09:14:51;;;;;;;26.38;10.95;;;;;;;;;;5092420;28;20039;-80
2021/12/06 09:17:17;;;;;;;23.08;8.95;;;;;;;;;;5095255;28;20024;-80
2021/12/06 09:19:42;;;;;;;20.58;9.38;;;;;;;;;;5081916;28;20024;-84
2021/12/06 09:22:08;;;;;;;25.88;10.30;;;;;;;;;;5077550;28;20031;-83
2021/12/06 09:24:34;;;;;;;33.03;14.45;;;;;;;;;;5096687;28;20024;-83
2021/12/06 09:27:01;;;;;;;25.95;11.05;;;;;;;;;;5075228;28;20020;-82
2021/12/06 09:29:27;;;;;;;26.35;12.65;;;;;;;;;;5093132;28;20036;-82
2021/12/06 09:31:54;;;;;;;29.40;12.93;;;;;;;;;;5089411;28;20024;-81
2021/12/06 09:34:22;;;;;;;94.55;38.60;;;;;;;;;;5060643;28;20372;-81
2021/12/06 09:36:48;;;;;;;68.50;27.85;;;;;;;;;;5103054;28;20024;-79
2021/12/06 09:40:04;;;;;;;30.98;14.05;;;;;;;;;;5065898;28;20027;-81
2021/12/06 09:42:33;;;;;;;76.32;28.33;;;;;;;;;;5059730;28;20066;-74
2021/12/06 09:45:24;;;;;;;41.42;15.82;;;;;;;;;;5086485;28;20123;-78
2021/12/06 09:47:56;;;;;;;51.55;21.20;;;;;;;;;;5078806;28;20103;-81
2021/12/06 09:54:29;;;;;;;34.60;14.88;;;;;;;;;;5014469;28;20434;-84
2021/12/06 09:57:28;;;;;;;35.78;15.32;;;;;;;;;;5019398;28;20092;-87
2021/12/06 10:00:28;;;;;;;45.63;16.80;;;;;;;;;;5066749;23;20771;-84
2021/12/06 10:02:54;;;;;;;;;;;;;;;;;;5069511;28;20120;-83
2021/12/06 10:05:20;;;;;;;38.10;15.93;;;;;;;;;;5087157;28;19983;-84
2021/12/06 10:08:14;;;;;;;49.70;18.33;;;;;;;;;;5077509;28;20024;-85
2021/12/06 10:10:39;;;;;;;79.05;34.45;;;;;;;;;;5103403;28;20046;-82
2021/12/06 10:13:08;;;;;;;45.20;19.48;;;;;;;;;;5104420;28;20043;-83
2021/12/06 10:15:48;;;;;;;34.08;13.57;;;;;;;;;;5095430;28;20024;-84
2021/12/06 10:18:26;;;;;;;43.38;16.10;;;;;;;;;;5076547;28;20119;-87
2021/12/06 10:20:51;;;;;;;51.13;20.65;;;;;;;;;;5085400;28;20448;-85
2021/12/06 10:23:20;;;;;;;171.85;74.63;;;;;;;;;;5068258;28;20032;-79
2021/12/06 10:25:48;;;;;;;82.22;35.00;;;;;;;;;;5092989;28;20065;-79
2021/12/06 10:28:14;;;;;;;47.83;19.00;;;;;;;;;;5083789;28;20431;-78
2021/12/06 10:30:50;;;;;;;43.95;20.17;;;;;;;;;;5076272;28;20138;-77
2021/12/06 10:33:18;;;;;;;42.13;16.77;;;;;;;;;;5086026;28;20040;-83
2021/12/06 10:35:47;;;;;;;31.35;13.10;;;;;;;;;;5058083;28;20047;-79
2021/12/06 10:38:23;;;;;;;33.30;15.15;;;;;;;;;;5095430;28;20039;-81
2021/12/06 10:41:10;;;;;;;43.08;17.08;;;;;;;;;;5077838;28;20083;-79
2021/12/06 10:43:35;;;;;;;39.90;15.00;;;;;;;;;;5073025;28;20538;-74
2021/12/06 10:56:47;;;;;;;56.90;24.15;;;;;;;;;;5111189;27;20457;-88
2021/12/06 10:59:29;;;;;;;349.65;107.60;;;;;;;;;;5117701;22;20123;-79
2021/12/06 11:02:03;;;;;;;77.88;28.77;;;;;;;;;;5113490;28;20032;-80
2021/12/06 11:04:31;;;;;;;37.55;14.27;;;;;;;;;;5077841;28;20027;-82
2021/12/06 11:07:04;;;;;;;39.25;16.98;;;;;;;;;;5108523;28;20097;-80
2021/12/06 11:10:26;;;;;;;76.03;33.47;;;;;;;;;;5097578;28;20040;-81
2021/12/06 11:13:17;;;;;;;59.97;28.10;;;;;;;;;;5083153;28;20028;-80
2021/12/06 11:15:57;;;;;;;50.55;21.70;;;;;;;;;;5087741;28;20413;-77
2021/12/06 11:18:53;;;;;;;41.95;17.85;;;;;;;;;;5089410;28;20115;-76
2021/12/06 11:21:33;;;;;;;26.20;11.68;;;;;;;;;;5087080;28;20031;-74
2021/12/06 11:24:05;;;;;;;32.37;12.47;;;;;;;;;;5087804;28;20020;-74
2021/12/06 11:26:30;;;;;;;27.20;10.35;;;;;;;;;;5083800;28;20314;-75
2021/12/06 11:29:05;;;;;;;31.80;12.65;;;;;;;;;;5070980;28;20051;-75
2021/12/06 11:31:31;;;;;;;25.80;11.07;;;;;;;;;;5083961;28;20060;-74
2021/12/06 11:34:01;;;;;;;30.75;11.70;;;;;;;;;;5085049;28;20455;-74
2021/12/06 11:36:27;;;;;;;44.00;18.20;;;;;;;;;;5101910;28;20085;-76
2021/12/06 11:39:04;;;;;;;37.88;15.23;;;;;;;;;;5085449;28;20071;-78
2021/12/06 11:41:32;;;;;;;32.40;13.25;;;;;;;;;;5086800;28;20478;-79
2021/12/06 11:43:59;;;;;;;32.10;12.95;;;;;;;;;;5071598;28;20411;-78
2021/12/06 11:46:31;;;;;;;35.10;14.43;;;;;;;;;;5071233;28;20029;-79
2021/12/06 11:48:57;;;;;;;32.90;14.35;;;;;;;;;;5072379;28;20031;-79
2021/12/06 11:51:24;;;;;;;30.15;12.75;;;;;;;;;;5070535;28;20024;-84
2021/12/06 11:53:54;;;;;;;26.38;11.30;;;;;;;;;;5107120;28;20164;-79
2021/12/06 11:56:25;;;;;;;29.38;13.27;;;;;;;;;;5074718;28;20093;-81
2021/12/06 11:58:56;;;;;;;39.20;16.88;;;;;;;;;;5052794;28;20037;-81
2021/12/06 12:01:38;;;;;;;;;;;;;;;;;;5035062;28;20025;-82
2021/12/06 12:04:10;;;;;;;26.45;10.40;;;;;;;;;;5054631;28;19964;-81
2021/12/06 12:06:41;;;;;;;25.17;9.73;;;;;;;;;;5057058;28;20033;-81
2021/12/06 12:09:15;;;;;;;215.52;47.60;;;;;;;;;;5055696;28;20513;-81
2021/12/06 12:12:07;;;;;;;83.00;22.52;;;;;;;;;;5063181;28;20025;-83
2021/12/06 12:14:42;;;;;;;32.90;13.25;;;;;;;;;;5067807;28;20033;-84
2021/12/06 12:17:18;;;;;;;27.83;11.73;;;;;;;;;;5065473;28;20028;-83
2021/12/06 12:19:44;;;;;;;24.48;11.18;;;;;;;;;;5047607;28;20355;-83
2021/12/06 12:22:11;;;;;;;27.30;11.38;;;;;;;;;;5066565;28;20029;-82
2021/12/06 12:24:39;;;;;;;42.50;16.13;;;;;;;;;;5058457;28;20187;-82
2021/12/06 12:27:30;;;;;;;40.80;14.13;;;;;;;;;;5064624;28;20027;-85
2021/12/06 12:29:59;;;;;;;41.42;15.23;;;;;;;;;;5054762;28;20440;-84
2021/12/06 12:32:25;;;;;;;36.25;14.02;;;;;;;;;;5056027;28;20025;-83
2021/12/06 12:34:51;;;;;;;61.78;24.20;;;;;;;;;;5055440;28;20036;-83
2021/12/06 12:37:19;;;;;;;40.60;15.30;;;;;;;;;;5037570;28;20465;-82
2021/12/06 12:40:06;;;;;;;41.33;18.40;;;;;;;;;;5054308;28;20033;-80
2021/12/06 12:42:32;;;;;;;67.28;27.98;;;;;;;;;;5054506;28;20062;-81
2021/12/06 12:44:59;;;;;;;45.70;21.52;;;;;;;;;;5054123;28;20387;-83
2021/12/06 12:47:31;;;;;;;37.97;16.58;;;;;;;;;;5038294;28;20329;-83
2021/12/06 12:50:07;;;;;;;46.95;19.67;;;;;;;;;;5054145;28;20033;-82
2021/12/06 12:52:41;;;;;;;40.75;18.25;;;;;;;;;;5054318;28;20056;-81
2021/12/06 12:55:29;;;;;;;36.15;15.23;;;;;;;;;;5037402;28;20371;-82
2021/12/06 12:58:13;;;;;;;35.83;15.15;;;;;;;;;;5037653;28;20059;-79
2021/12/06 13:01:01;;;;;;;38.70;15.60;;;;;;;;;;5070449;28;20439;-80
2021/12/06 13:03:27;;;;;;;38.10;14.43;;;;;;;;;;5070647;28;20043;-83
2021/12/06 13:06:14;;;;;;;51.10;19.70;;;;;;;;;;5054570;28;20033;-83
2021/12/06 13:08:39;;;;;;;51.53;19.95;;;;;;;;;;5053957;28;20112;-81
2021/12/06 13:11:10;;;;;;;49.38;21.50;;;;;;;;;;5053604;28;20445;-81
2021/12/06 13:13:43;;;;;;;39.97;18.95;;;;;;;;;;5054331;28;20051;-82
2021/12/06 13:16:34;;;;;;;43.28;20.30;;;;;;;;;;5055368;28;20091;-82
2021/12/06 13:19:15;;;;;;;38.05;18.17;;;;;;;;;;5055089;28;20039;-81
2021/12/06 13:22:15;;;;;;;39.67;19.02;;;;;;;;;;5037938;28;20021;-85
2021/12/06 13:24:51;;;;;;;48.17;22.42;;;;;;;;;;5046021;28;20048;-81
2021/12/06 13:27:21;;;;;;;54.15;22.23;;;;;;;;;;5053380;28;20020;-82
2021/12/06 13:29:50;;;;;;;45.90;20.27;;;;;;;;;;5055072;28;20682;-82
2021/12/06 13:32:33;;;;;;;44.42;18.60;;;;;;;;;;5053233;28;20059;-80
2021/12/06 13:35:39;;;;;;;84.60;40.38;;;;;;;;;;5053352;28;20025;-81
2021/12/06 13:38:14;;;;;;;37.50;18.90;;;;;;;;;;5040374;28;20045;-81
2021/12/06 13:40:50;;;;;;;34.35;15.65;;;;;;;;;;5053283;28;20029;-80
2021/12/06 13:43:18;;;;;;;36.65;17.73;;;;;;;;;;5053402;28;20032;-82
2021/12/06 13:45:48;;;;;;;48.25;19.67;;;;;;;;;;5070089;28;20025;-81
2021/12/06 13:48:38;;;;;;;37.50;16.98;;;;;;;;;;5036960;28;20057;-80
2021/12/06 13:51:37;;;;;;;32.63;15.80;;;;;;;;;;5048304;28;20025;-82
2021/12/06 13:54:25;;;;;;;40.25;17.55;;;;;;;;;;5056013;28;20263;-82
2021/12/06 13:57:00;;;;;;;38.13;16.75;;;;;;;;;;5053774;28;20033;-84
2021/12/06 13:59:39;;;;;;;36.95;16.88;;;;;;;;;;5055853;28;20036;-80
2021/12/06 14:02:30;;;;;;;37.28;17.17;;;;;;;;;;5044735;28;20119;-82
2021/12/06 14:04:57;;;;;;;74.88;28.65;;;;;;;;;;5054108;28;20132;-81
2021/12/06 14:07:24;;;;;;;58.50;24.38;;;;;;;;;;5053294;28;20509;-88
2021/12/06 14:09:50;;;;;;;75.55;29.85;;;;;;;;;;5036946;28;20119;-83
2021/12/06 14:12:18;;;;;;;63.35;25.65;;;;;;;;;;5052729;28;20040;-82
2021/12/06 14:14:48;;;;;;;86.68;37.40;;;;;;;;;;5054050;28;20032;-85
2021/12/06 14:17:14;;;;;;;74.63;33.67;;;;;;;;;;5037483;28;20064;-82
2021/12/06 14:19:39;;;;;;;69.40;30.35;;;;;;;;;;5052425;28;20067;-82
2021/12/06 14:22:06;;;;;;;44.85;19.17;;;;;;;;;;5054003;28;20035;-87
2021/12/06 14:24:33;;;;;;;43.47;18.02;;;;;;;;;;5036873;28;20036;-84
2021/12/06 14:26:58;;;;;;;39.28;18.67;;;;;;;;;;5036831;28;20044;-84
2021/12/06 14:29:26;;;;;;;55.40;24.40;;;;;;;;;;5053590;28;20025;-85
2021/12/06 14:31:53;;;;;;;52.28;24.17;;;;;;;;;;5052841;28;20118;-86
2021/12/06 14:34:20;;;;;;;51.38;23.20;;;;;;;;;;5053094;28;20430;-85
2021/12/06 14:36:46;;;;;;;66.53;33.05;;;;;;;;;;5052683;28;20039;-86
2021/12/06 14:39:17;;;;;;;55.65;27.48;;;;;;;;;;5052932;28;20467;-84
2021/12/06 14:41:50;;;;;;;58.75;25.92;;;;;;;;;;5036087;28;20027;-82
2021/12/06 14:44:33;;;;;;;50.20;21.23;;;;;;;;;;5036529;28;20037;-85
2021/12/06 14:46:59;;;;;;;52.75;22.70;;;;;;;;;;5052627;28;20498;-83
2021/12/06 14:49:25;;;;;;;51.53;21.33;;;;;;;;;;5053053;28;20033;-86
2021/12/06 14:51:50;;;;;;;49.83;21.58;;;;;;;;;;5053049;28;20436;-86
2021/12/06 14:54:23;;;;;;;52.80;22.38;;;;;;;;;;5052631;28;20037;-85
2021/12/06 14:59:18;;;;;;;58.20;25.10;;;;;;;;;;5052430;28;20387;-83
2021/12/06 15:01:44;;;;;;;67.72;28.95;;;;;;;;;;5052924;28;20032;-84
2021/12/06 15:04:18;;;;;;;66.95;28.00;;;;;;;;;;5053699;28;20078;-84
2021/12/06 15:06:47;;;;;;;61.83;25.92;;;;;;;;;;5053770;28;20406;-83
2021/12/06 15:09:15;;;;;;;61.60;28.58;;;;;;;;;;5053171;28;20025;-84
2021/12/06 15:11:41;;;;;;;68.82;28.23;;;;;;;;;;5052800;28;20025;-85
2021/12/06 15:14:10;;;;;;;60.85;27.55;;;;;;;;;;5052349;28;20036;-84
2021/12/06 15:16:36;;;;;;;63.15;28.35;;;;;;;;;;5036005;28;20437;-84
2021/12/06 15:19:02;;;;;;;59.45;25.50;;;;;;;;;;5052622;28;20081;-84